createdAt,value
2023-04-18T00:00:02.215Z,12.05
2023-04-18T00:02:39.790Z,12.50
2023-04-18T00:05:08.514Z,12.23
2023-04-18T00:07:35.649Z,12.15
2023-04-18T00:10:06.606Z,11.93
2023-04-18T00:12:34.363Z,12.73
2023-04-18T00:15:02.295Z,12.40
2023-04-18T00:17:30.361Z,12.18
2023-04-18T00:19:58.441Z,13.07
2023-04-18T00:22:25.993Z,12.50
2023-04-18T00:24:52.768Z,12.73
2023-04-18T00:27:20.544Z,13.25
2023-04-18T00:29:48.118Z,13.20
2023-04-18T00:32:17.752Z,12.82
2023-04-18T00:34:45.157Z,12.80
2023-04-18T00:37:13.029Z,13.10
2023-04-18T00:39:42.140Z,13.48
2023-04-18T00:42:08.978Z,12.77
2023-04-18T00:44:36.214Z,13.02
2023-04-18T00:47:03.065Z,13.23
2023-04-18T00:49:30.092Z,13.18
2023-04-18T00:51:57.152Z,14.98
2023-04-18T00:54:25.401Z,13.32
2023-04-18T00:56:52.646Z,14.40
2023-04-18T00:59:21.123Z,14.38
2023-04-18T01:01:48.101Z,15.15
2023-04-18T01:04:15.115Z,15.00
2023-04-18T01:06:44.009Z,14.60
2023-04-18T01:09:11.216Z,15.93
2023-04-18T01:11:38.094Z,17.67
2023-04-18T01:14:07.445Z,16.58
2023-04-18T01:16:40.051Z,16.08
2023-04-18T01:19:07.086Z,17.25
2023-04-18T01:21:37.463Z,18.15
2023-04-18T01:24:12.663Z,17.17
2023-04-18T01:26:44.040Z,18.00
2023-04-18T01:29:11.513Z,18.33
2023-04-18T01:31:39.307Z,17.70
2023-04-18T01:34:08.003Z,18.42
2023-04-18T01:36:35.998Z,18.20
2023-04-18T01:39:03.007Z,21.50
2023-04-18T01:41:32.391Z,19.15
2023-04-18T01:43:59.760Z,20.77
2023-04-18T01:46:27.010Z,20.10
2023-04-18T01:48:54.750Z,21.13
2023-04-18T01:51:22.278Z,21.02
2023-04-18T01:53:49.309Z,20.55
2023-04-18T01:56:16.274Z,21.35
2023-04-18T01:58:43.096Z,20.90
2023-04-18T02:01:10.443Z,22.70
2023-04-18T02:03:38.747Z,21.60
2023-04-18T02:06:06.790Z,22.65
2023-04-18T02:08:36.104Z,22.42
2023-04-18T02:11:05.590Z,22.70
2023-04-18T02:13:32.710Z,22.88
2023-04-18T02:15:59.852Z,21.92
2023-04-18T02:18:27.401Z,22.77
2023-04-18T02:20:54.417Z,23.52
2023-04-18T02:23:22.702Z,22.88
2023-04-18T02:25:50.699Z,22.80
2023-04-18T02:28:18.100Z,22.83
2023-04-18T02:30:44.892Z,23.02
2023-04-18T02:33:11.970Z,21.92
2023-04-18T02:35:39.015Z,22.08
2023-04-18T02:38:05.947Z,21.00
2023-04-18T02:40:32.762Z,22.75
2023-04-18T02:42:59.978Z,21.00
2023-04-18T02:45:27.635Z,21.48
2023-04-18T02:47:57.129Z,23.05
2023-04-18T02:50:24.872Z,21.35
2023-04-18T02:52:53.460Z,21.05
2023-04-18T02:55:26.874Z,21.50
2023-04-18T02:57:57.433Z,22.20
2023-04-18T03:00:50.549Z,22.88
2023-04-18T03:03:44.669Z,21.65
2023-04-18T03:06:24.901Z,21.77
2023-04-18T03:08:53.025Z,23.42
2023-04-18T03:11:20.109Z,23.33
2023-04-18T03:13:47.268Z,23.88
2023-04-18T03:16:15.042Z,24.98
2023-04-18T03:18:44.164Z,23.85
2023-04-18T03:21:11.789Z,24.08
2023-04-18T03:23:38.996Z,24.73
2023-04-18T03:26:08.057Z,24.65
2023-04-18T03:28:37.840Z,25.25
2023-04-18T03:31:05.457Z,25.55
2023-04-18T03:33:35.212Z,24.02
2023-04-18T03:36:08.838Z,23.80
2023-04-18T03:38:36.894Z,22.52
2023-04-18T03:41:03.698Z,23.70
2023-04-18T03:43:34.259Z,22.75
2023-04-18T03:46:01.464Z,24.20
2023-04-18T03:48:35.767Z,24.67
2023-04-18T03:51:06.369Z,24.92
2023-04-18T03:53:34.040Z,23.30
2023-04-18T03:56:00.875Z,24.17
2023-04-18T03:58:42.346Z,23.73
2023-04-18T04:01:09.289Z,23.27
2023-04-18T04:03:37.210Z,24.00
2023-04-18T04:06:06.445Z,22.50
2023-04-18T04:08:33.942Z,24.83
2023-04-18T04:11:00.962Z,25.10
2023-04-18T04:13:28.215Z,24.05
2023-04-18T04:15:55.571Z,23.80
2023-04-18T04:18:29.721Z,25.30
2023-04-18T04:20:59.116Z,24.55
2023-04-18T04:23:36.319Z,25.33
2023-04-18T04:26:03.258Z,25.88
2023-04-18T04:28:40.087Z,24.20
2023-04-18T04:31:08.342Z,23.98
2023-04-18T04:33:38.791Z,25.08
2023-04-18T04:36:15.203Z,24.90
2023-04-18T04:38:44.337Z,25.55
2023-04-18T04:41:11.766Z,24.58
2023-04-18T04:43:41.411Z,24.55
2023-04-18T04:46:09.384Z,24.65
2023-04-18T04:48:36.180Z,24.50
2023-04-18T04:51:03.977Z,22.63
2023-04-18T04:53:31.402Z,25.45
2023-04-18T04:56:00.226Z,24.45
2023-04-18T04:58:27.641Z,23.67
2023-04-18T05:00:57.244Z,24.15
2023-04-18T05:03:24.368Z,22.77
2023-04-18T05:05:51.599Z,23.95
2023-04-18T05:08:18.436Z,24.27
2023-04-18T05:10:45.956Z,23.35
2023-04-18T05:13:12.729Z,24.88
2023-04-18T05:15:39.749Z,25.10
2023-04-18T05:18:07.081Z,24.75
2023-04-18T05:20:33.870Z,23.30
2023-04-18T05:23:01.081Z,24.73
2023-04-18T05:25:29.712Z,24.08
2023-04-18T05:27:56.975Z,25.08
2023-04-18T05:30:23.790Z,23.77
2023-04-18T05:32:50.917Z,25.52
2023-04-18T05:35:17.777Z,23.83
2023-04-18T05:37:44.818Z,22.77
2023-04-18T05:40:12.890Z,24.13
2023-04-18T05:42:39.775Z,24.35
2023-04-18T05:45:07.124Z,25.42
2023-04-18T05:47:34.165Z,24.40
2023-04-18T05:50:01.096Z,25.27
2023-04-18T05:52:27.906Z,25.42
2023-04-18T05:54:54.725Z,23.70
2023-04-18T05:57:21.542Z,27.02
2023-04-18T05:59:48.316Z,26.15
2023-04-18T06:02:15.231Z,25.33
2023-04-18T06:04:42.976Z,24.08
2023-04-18T06:07:10.133Z,26.85
2023-04-18T06:09:36.988Z,25.30
2023-04-18T06:12:04.159Z,23.30
2023-04-18T06:14:31.034Z,23.75
2023-04-18T06:16:58.087Z,24.10
2023-04-18T06:19:25.017Z,24.20
2023-04-18T06:21:54.156Z,25.42
2023-04-18T06:24:20.975Z,24.27
2023-04-18T06:26:48.386Z,25.15
2023-04-18T06:29:15.319Z,24.42
2023-04-18T06:31:45.479Z,25.85
2023-04-18T06:34:13.183Z,24.95
2023-04-18T06:36:40.317Z,24.10
2023-04-18T06:39:07.296Z,25.55
2023-04-18T06:41:34.127Z,24.30
2023-04-18T06:44:04.129Z,23.15
2023-04-18T06:46:32.547Z,24.17
2023-04-18T06:48:59.736Z,24.13
2023-04-18T06:51:27.395Z,22.73
2023-04-18T06:53:54.435Z,24.30
2023-04-18T06:56:21.651Z,23.10
2023-04-18T06:58:49.376Z,24.10
2023-04-18T07:01:16.477Z,23.58
2023-04-18T07:03:44.079Z,23.10
2023-04-18T07:06:11.044Z,22.65
2023-04-18T07:08:38.483Z,22.48
2023-04-18T07:11:06.619Z,21.95
2023-04-18T07:13:33.591Z,22.60
2023-04-18T07:16:01.588Z,22.17
2023-04-18T07:18:38.018Z,22.65
2023-04-18T07:21:08.910Z,22.90
2023-04-18T07:23:36.130Z,23.55
2023-04-18T07:26:03.370Z,21.60
2023-04-18T07:28:32.262Z,20.98
2023-04-18T07:30:59.515Z,22.08
2023-04-18T07:33:26.412Z,20.58
2023-04-18T07:35:53.309Z,21.73
2023-04-18T07:38:20.695Z,22.27
2023-04-18T07:40:55.931Z,23.45
2023-04-18T07:43:22.763Z,22.40
2023-04-18T07:45:49.618Z,21.40
2023-04-18T07:48:16.828Z,23.02
2023-04-18T07:50:44.052Z,23.58
2023-04-18T07:53:10.904Z,22.50
2023-04-18T07:55:37.729Z,23.25
2023-04-18T07:58:04.530Z,23.58
2023-04-18T08:00:32.713Z,22.88
2023-04-18T08:02:59.616Z,23.40
2023-04-18T08:05:26.613Z,22.65
2023-04-18T08:07:53.485Z,23.52
2023-04-18T08:10:22.465Z,24.58
2023-04-18T08:12:50.473Z,22.60
2023-04-18T08:15:17.231Z,23.05
2023-04-18T08:17:45.280Z,24.50
2023-04-18T08:20:12.967Z,24.55
2023-04-18T08:22:50.426Z,24.23
2023-04-18T08:25:24.105Z,25.10
2023-04-18T08:27:50.875Z,25.15
2023-04-18T08:30:17.939Z,24.65
2023-04-18T08:32:44.854Z,24.85
2023-04-18T08:35:11.713Z,25.67
2023-04-18T08:37:38.878Z,25.85
2023-04-18T08:40:07.238Z,24.75
2023-04-18T08:42:35.426Z,24.85
2023-04-18T08:45:02.686Z,24.38
2023-04-18T08:47:30.062Z,25.30
2023-04-18T08:49:58.425Z,24.08
2023-04-18T08:52:27.250Z,23.70
2023-04-18T08:54:54.067Z,25.10
2023-04-18T08:57:23.750Z,25.23
2023-04-18T08:59:51.264Z,23.50
2023-04-18T09:02:19.222Z,22.00
2023-04-18T09:04:49.210Z,23.75
2023-04-18T09:07:18.167Z,23.75
2023-04-18T09:09:45.473Z,22.35
2023-04-18T09:12:18.323Z,23.70
2023-04-18T09:14:47.173Z,22.65
2023-04-18T09:17:18.368Z,22.15
2023-04-18T09:19:48.953Z,22.98
2023-04-18T09:22:17.506Z,23.73
2023-04-18T09:24:57.398Z,21.35
2023-04-18T09:27:25.017Z,21.88
2023-04-18T09:29:55.252Z,22.98
2023-04-18T09:32:25.672Z,22.27
2023-04-18T09:34:58.157Z,21.65
2023-04-18T09:37:26.340Z,20.67
2023-04-18T09:39:53.492Z,21.02
2023-04-18T09:42:21.196Z,21.35
2023-04-18T09:44:59.782Z,20.48
2023-04-18T09:47:28.258Z,26.88
2023-04-18T09:49:55.589Z,26.05
2023-04-18T09:52:25.832Z,21.67
2023-04-18T09:55:00.216Z,20.63
2023-04-18T09:57:29.334Z,33.92
2023-04-18T10:00:13.374Z,23.67
2023-04-18T10:03:02.590Z,22.23
2023-04-18T10:05:35.768Z,21.73
2023-04-18T10:08:04.179Z,19.45
2023-04-18T10:10:31.154Z,20.20
2023-04-18T10:13:00.378Z,19.92
2023-04-18T10:15:29.548Z,19.23
2023-04-18T10:18:05.359Z,18.65
2023-04-18T10:20:35.056Z,20.48
2023-04-18T10:23:31.459Z,19.73
2023-04-18T10:25:59.136Z,19.20
2023-04-18T10:28:27.541Z,20.23
2023-04-18T10:31:05.597Z,20.48
2023-04-18T10:33:42.353Z,18.77
2023-04-18T10:36:09.870Z,20.00
2023-04-18T10:38:45.221Z,20.95
2023-04-18T10:41:22.647Z,18.05
2023-04-18T10:44:14.632Z,19.38
2023-04-18T10:47:03.811Z,17.45
2023-04-18T10:49:32.879Z,17.75
2023-04-18T10:52:01.657Z,18.75
2023-04-18T10:54:47.585Z,17.90
2023-04-18T10:57:15.613Z,17.67
2023-04-18T10:59:44.066Z,18.48
2023-04-18T11:02:32.606Z,18.00
2023-04-18T11:05:07.623Z,16.98
2023-04-18T11:07:37.687Z,17.13
2023-04-18T11:10:06.306Z,17.85
2023-04-18T11:12:36.290Z,17.13
2023-04-18T11:15:15.179Z,17.02
2023-04-18T11:17:44.518Z,16.52
2023-04-18T11:20:15.160Z,16.25
2023-04-18T11:22:59.601Z,15.52
2023-04-18T11:25:34.530Z,15.32
2023-04-18T11:28:03.823Z,16.00
2023-04-18T11:30:41.309Z,15.88
2023-04-18T11:33:09.585Z,14.68
2023-04-18T11:35:38.673Z,15.70
2023-04-18T11:38:07.192Z,15.57
2023-04-18T11:40:37.738Z,16.30
2023-04-18T11:43:06.571Z,14.77
2023-04-18T11:45:33.846Z,14.88
2023-04-18T11:48:02.532Z,14.32
2023-04-18T11:50:39.628Z,14.90
2023-04-18T11:53:06.817Z,13.35
2023-04-18T11:55:34.156Z,13.57
2023-04-18T11:58:02.680Z,13.18
2023-04-18T12:00:38.843Z,13.98
2023-04-18T12:03:13.378Z,11.63
2023-04-18T12:05:43.704Z,11.00
2023-04-18T12:08:21.409Z,10.07
2023-04-18T12:10:54.726Z,9.43
2023-04-18T12:13:33.324Z,8.50
2023-04-18T12:16:03.069Z,9.48
2023-04-18T12:18:31.720Z,9.43
2023-04-18T12:21:02.560Z,8.55
2023-04-18T12:23:35.850Z,8.27
2023-04-18T12:26:06.244Z,8.05
2023-04-18T12:28:34.873Z,9.07
2023-04-18T12:31:03.093Z,9.05
2023-04-18T12:33:31.064Z,8.50
2023-04-18T12:35:59.051Z,8.30
2023-04-18T12:38:27.349Z,7.95
2023-04-18T12:40:54.652Z,7.82
2023-04-18T12:43:22.253Z,7.90
2023-04-18T12:45:50.331Z,7.43
2023-04-18T12:48:18.552Z,6.93
2023-04-18T12:50:46.434Z,7.65
2023-04-18T12:53:14.327Z,7.65
2023-04-18T12:55:41.290Z,7.00
2023-04-18T12:58:08.419Z,7.25
2023-04-18T13:00:35.764Z,7.53
2023-04-18T13:03:03.007Z,6.68
2023-04-18T13:05:32.982Z,7.47
2023-04-18T13:10:31.689Z,7.18
2023-04-18T13:12:58.393Z,7.32
2023-04-18T13:15:26.069Z,7.00
2023-04-18T13:17:53.343Z,7.00
2023-04-18T13:20:20.446Z,6.88
2023-04-18T13:22:47.363Z,7.60
2023-04-18T13:25:14.336Z,6.93
2023-04-18T13:27:42.069Z,6.35
2023-04-18T13:30:10.939Z,6.47
2023-04-18T13:32:39.216Z,6.85
2023-04-18T13:35:09.167Z,7.10
2023-04-18T13:37:37.065Z,6.93
2023-04-18T13:40:06.419Z,6.68
2023-04-18T13:42:37.625Z,6.40
2023-04-18T13:45:05.198Z,6.60
2023-04-18T13:47:32.092Z,6.35
2023-04-18T13:49:58.937Z,6.40
2023-04-18T13:52:26.282Z,6.75
2023-04-18T13:54:53.279Z,6.55
2023-04-18T13:57:20.348Z,7.07
2023-04-18T13:59:47.223Z,6.68
2023-04-18T14:02:14.591Z,6.10
2023-04-18T14:04:41.566Z,5.97
2023-04-18T14:07:09.140Z,7.28
2023-04-18T14:09:36.337Z,7.20
2023-04-18T14:12:03.188Z,5.82
2023-04-18T14:14:30.378Z,5.35
2023-04-18T14:16:57.237Z,5.05
2023-04-18T14:19:24.113Z,7.03
2023-04-18T14:21:51.035Z,5.88
2023-04-18T14:24:18.079Z,5.63
2023-04-18T14:26:44.867Z,5.30
2023-04-18T14:29:11.786Z,5.93
2023-04-18T14:31:38.805Z,5.90
2023-04-18T14:34:06.493Z,5.03
2023-04-18T14:36:33.412Z,5.22
2023-04-18T14:39:00.493Z,4.93
2023-04-18T14:41:27.540Z,5.38
2023-04-18T14:43:54.433Z,5.50
2023-04-18T14:46:21.403Z,4.97
2023-04-18T14:48:48.502Z,5.25
2023-04-18T14:51:16.492Z,4.90
2023-04-18T14:53:44.445Z,5.18
2023-04-18T14:56:11.466Z,4.72
2023-04-18T14:58:38.717Z,4.63
2023-04-18T15:01:05.755Z,4.43
2023-04-18T15:03:33.379Z,5.03
2023-04-18T15:06:00.382Z,4.75
2023-04-18T15:08:27.394Z,4.50
2023-04-18T15:10:54.161Z,4.60
2023-04-18T15:13:21.171Z,4.00
2023-04-18T15:15:56.300Z,4.80
2023-04-18T15:18:23.240Z,4.78
2023-04-18T15:20:51.035Z,5.10
2023-04-18T15:23:17.794Z,4.60
2023-04-18T15:25:45.474Z,4.53
2023-04-18T15:28:13.736Z,4.90
2023-04-18T15:30:40.709Z,4.63
2023-04-18T15:33:08.028Z,4.75
2023-04-18T15:35:35.815Z,4.72
2023-04-18T15:38:03.059Z,4.13
2023-04-18T15:40:30.478Z,4.68
2023-04-18T15:42:59.383Z,4.40
2023-04-18T15:45:26.454Z,4.18
2023-04-18T15:47:53.486Z,5.43
2023-04-18T15:50:20.628Z,4.72
2023-04-18T15:52:47.482Z,4.47
2023-04-18T15:55:14.333Z,4.25
2023-04-18T15:57:41.729Z,4.25
2023-04-18T16:00:16.061Z,4.28
2023-04-18T16:02:46.611Z,4.75
2023-04-18T16:05:14.205Z,4.45
2023-04-18T16:07:42.018Z,4.75
2023-04-18T16:10:10.314Z,4.57
2023-04-18T16:12:38.542Z,5.22
2023-04-18T16:15:06.950Z,4.68
2023-04-18T16:17:34.455Z,4.55
2023-04-18T16:20:01.600Z,4.70
2023-04-18T16:22:28.469Z,4.18
2023-04-18T16:24:55.504Z,4.93
2023-04-18T16:27:22.387Z,4.00
2023-04-18T16:29:49.662Z,4.00
2023-04-18T16:32:16.513Z,4.55
2023-04-18T16:34:45.476Z,4.28
2023-04-18T16:37:12.258Z,4.93
2023-04-18T16:39:39.014Z,4.75
2023-04-18T16:42:05.936Z,5.20
2023-04-18T16:44:33.180Z,4.82
2023-04-18T16:47:00.255Z,5.40
2023-04-18T16:49:27.621Z,5.95
2023-04-18T16:51:54.471Z,5.95
2023-04-18T16:54:21.418Z,4.93
2023-04-18T16:56:48.311Z,5.07
2023-04-18T16:59:15.085Z,4.65
2023-04-18T17:01:42.048Z,4.88
2023-04-18T17:04:08.950Z,5.80
2023-04-18T17:06:35.832Z,5.53
2023-04-18T17:09:05.108Z,6.20
2023-04-18T17:11:34.714Z,5.82
2023-04-18T17:14:01.631Z,7.60
2023-04-18T17:16:28.425Z,4.90
2023-04-18T17:18:55.381Z,5.18
2023-04-18T17:21:22.678Z,5.47
2023-04-18T17:23:49.646Z,5.35
2023-04-18T17:26:16.485Z,5.55
2023-04-18T17:28:43.211Z,5.40
2023-04-18T17:31:10.070Z,4.93
2023-04-18T17:33:37.097Z,5.25
2023-04-18T17:36:06.357Z,5.05
2023-04-18T17:38:33.271Z,5.38
2023-04-18T17:41:00.860Z,6.82
2023-04-18T17:43:28.011Z,6.13
2023-04-18T17:45:56.833Z,12.43
2023-04-18T17:48:23.780Z,15.15
2023-04-18T17:50:50.607Z,16.05
2023-04-18T17:53:18.180Z,6.38
2023-04-18T17:55:46.842Z,6.20
2023-04-18T17:58:14.396Z,5.50
2023-04-18T18:00:41.299Z,5.50
2023-04-18T18:03:13.600Z,7.15
2023-04-18T18:05:41.906Z,15.27
2023-04-18T18:08:08.831Z,14.23
2023-04-18T18:10:35.726Z,9.00
2023-04-18T18:13:02.583Z,19.10
2023-04-18T18:15:30.925Z,10.25
2023-04-18T18:17:58.157Z,8.93
2023-04-18T18:20:25.774Z,8.00
2023-04-18T18:22:54.035Z,5.57
2023-04-18T18:25:21.485Z,8.45
2023-04-18T18:27:48.303Z,6.28
2023-04-18T18:30:15.462Z,6.82
2023-04-18T18:32:42.243Z,5.75
2023-04-18T18:35:09.350Z,6.82
2023-04-18T18:37:36.239Z,6.82
2023-04-18T18:40:07.331Z,7.45
2023-04-18T18:42:34.352Z,6.65
2023-04-18T18:45:01.612Z,6.80
2023-04-18T18:47:30.466Z,6.78
2023-04-18T18:49:57.397Z,6.63
2023-04-18T18:52:24.905Z,6.75
2023-04-18T18:54:52.757Z,7.22
2023-04-18T18:57:19.581Z,7.53
2023-04-18T18:59:46.756Z,6.45
2023-04-18T19:02:13.723Z,6.97
2023-04-18T19:04:40.891Z,6.60
2023-04-18T19:07:08.186Z,7.35
2023-04-18T19:09:36.783Z,8.25
2023-04-18T19:12:06.965Z,7.68
2023-04-18T19:14:34.049Z,8.18
2023-04-18T19:17:02.325Z,8.88
2023-04-18T19:19:29.445Z,9.40
2023-04-18T19:21:56.436Z,7.57
2023-04-18T19:24:23.385Z,8.25
2023-04-18T19:26:50.269Z,7.97
2023-04-18T19:29:18.039Z,7.30
2023-04-18T19:31:45.287Z,7.30
2023-04-18T19:34:13.372Z,6.43
2023-04-18T19:36:40.422Z,6.25
2023-04-18T19:39:08.146Z,6.43
2023-04-18T19:41:34.887Z,6.32
2023-04-18T19:44:02.600Z,6.45
2023-04-18T19:46:29.440Z,6.40
2023-04-18T19:48:56.719Z,5.72
2023-04-18T19:51:23.772Z,6.68
2023-04-18T19:53:50.580Z,6.45
2023-04-18T19:56:17.590Z,6.18
2023-04-18T19:58:47.694Z,5.97
2023-04-18T20:01:19.393Z,6.07
2023-04-18T20:03:47.051Z,5.75
2023-04-18T20:06:14.416Z,5.93
2023-04-18T20:08:41.659Z,5.55
2023-04-18T20:11:10.683Z,6.15
2023-04-18T20:13:38.425Z,6.05
2023-04-18T20:16:06.495Z,6.35
2023-04-18T20:18:35.822Z,5.90
2023-04-18T20:21:04.033Z,5.90
2023-04-18T20:23:31.068Z,5.88
2023-04-18T20:25:58.092Z,6.32
2023-04-18T20:28:25.227Z,5.60
2023-04-18T20:30:52.398Z,5.85
2023-04-18T20:33:19.518Z,5.32
2023-04-18T20:35:47.195Z,5.97
2023-04-18T20:38:14.937Z,6.00
2023-04-18T20:40:45.009Z,6.10
2023-04-18T20:43:13.610Z,6.60
2023-04-18T20:45:43.018Z,6.18
2023-04-18T20:48:10.209Z,6.55
2023-04-18T20:50:37.125Z,6.20
2023-04-18T20:53:04.045Z,7.00
2023-04-18T20:55:31.616Z,6.53
2023-04-18T20:57:58.730Z,6.25
2023-04-18T21:00:25.858Z,6.78
2023-04-18T21:02:52.755Z,6.35
2023-04-18T21:05:19.784Z,6.90
2023-04-18T21:07:46.534Z,6.10
2023-04-18T21:10:13.700Z,6.95
2023-04-18T21:12:40.528Z,7.40
2023-04-18T21:15:07.982Z,7.03
2023-04-18T21:17:34.823Z,7.53
2023-04-18T21:20:01.809Z,6.90
2023-04-18T21:22:28.650Z,7.25
2023-04-18T21:24:55.992Z,6.85
2023-04-18T21:27:22.803Z,7.55
2023-04-18T21:29:49.671Z,15.60
2023-04-18T21:32:16.515Z,18.90
2023-04-18T21:34:43.323Z,9.00
2023-04-18T21:37:10.068Z,7.88
2023-04-18T21:39:38.162Z,8.05
2023-04-18T21:42:05.125Z,8.32
2023-04-18T21:44:31.975Z,7.30
2023-04-18T21:46:58.752Z,7.85
2023-04-18T21:49:25.686Z,7.80
2023-04-18T21:51:52.528Z,6.82
2023-04-18T21:54:19.688Z,7.82
2023-04-18T21:56:46.892Z,6.88
2023-04-18T21:59:13.676Z,7.07
2023-04-18T22:01:40.667Z,7.40
2023-04-18T22:04:07.739Z,6.85
2023-04-18T22:06:34.867Z,6.90
2023-04-18T22:09:01.913Z,7.28
2023-04-18T22:11:29.125Z,7.53
2023-04-18T22:13:57.969Z,8.00
2023-04-18T22:16:24.903Z,7.97
2023-04-18T22:18:51.991Z,7.97
2023-04-18T22:21:19.212Z,8.10
2023-04-18T22:23:46.010Z,7.88
2023-04-18T22:26:13.146Z,7.88
2023-04-18T22:28:40.040Z,8.48
2023-04-18T22:31:06.890Z,7.95
2023-04-18T22:33:34.186Z,8.90
2023-04-18T22:36:01.004Z,8.95
2023-04-18T22:38:27.777Z,9.57
2023-04-18T22:40:57.186Z,8.98
2023-04-18T22:43:24.934Z,9.35
2023-04-18T22:45:51.824Z,8.73
2023-04-18T22:48:20.014Z,8.60
2023-04-18T22:50:47.307Z,9.20
2023-04-18T22:53:15.080Z,9.38
2023-04-18T22:55:43.332Z,9.13
2023-04-18T22:58:11.206Z,9.70
2023-04-18T23:00:38.199Z,10.35
2023-04-18T23:03:05.643Z,9.95
2023-04-18T23:05:34.197Z,10.50
2023-04-18T23:08:01.173Z,10.55
2023-04-18T23:10:28.209Z,10.68
2023-04-18T23:12:55.239Z,10.15
2023-04-18T23:15:22.933Z,10.32
2023-04-18T23:17:53.012Z,11.05
2023-04-18T23:20:20.639Z,11.30
2023-04-18T23:22:50.166Z,10.55
2023-04-18T23:25:17.456Z,10.50
2023-04-18T23:27:44.421Z,11.32
2023-04-18T23:30:12.343Z,11.43
2023-04-18T23:32:39.278Z,11.15
2023-04-18T23:35:06.977Z,12.23
2023-04-18T23:37:34.174Z,12.07
2023-04-18T23:40:01.100Z,12.02
2023-04-18T23:42:28.020Z,12.38
2023-04-18T23:44:55.059Z,12.43
2023-04-18T23:47:21.985Z,12.35
2023-04-18T23:49:48.981Z,12.60
2023-04-18T23:52:15.742Z,12.82
2023-04-18T23:54:42.533Z,13.20
2023-04-18T23:57:09.449Z,12.82
2023-04-18T23:59:36.224Z,12.13
